sensor_id;sensor_type;location;lat;lon;timestamp;pressure;altitude;pressure_sealevel;temperature
19102;BMP280;9683;49.028;12.064;2022-12-18T00:00:39;98470.06;;;-1.05
19102;BMP280;9683;49.028;12.064;2022-12-18T00:03:06;98466.25;;;-1.01
19102;BMP280;9683;49.028;12.064;2022-12-18T00:05:32;98467.00;;;-0.99
19102;BMP280;9683;49.028;12.064;2022-12-18T00:07:59;98448.22;;;-0.93
19102;BMP280;9683;49.028;12.064;2022-12-18T00:10:28;98449.88;;;-0.92
19102;BMP280;9683;49.028;12.064;2022-12-18T00:12:55;98448.38;;;-0.94
19102;BMP280;9683;49.028;12.064;2022-12-18T00:15:22;98447.06;;;-1.00
19102;BMP280;9683;49.028;12.064;2022-12-18T00:17:48;98442.41;;;-0.96
19102;BMP280;9683;49.028;12.064;2022-12-18T00:20:15;98447.16;;;-0.90
19102;BMP280;9683;49.028;12.064;2022-12-18T00:22:46;98467.34;;;-0.81
19102;BMP280;9683;49.028;12.064;2022-12-18T00:25:13;98459.00;;;-0.75
19102;BMP280;9683;49.028;12.064;2022-12-18T00:27:41;98464.81;;;-0.71
19102;BMP280;9683;49.028;12.064;2022-12-18T00:30:09;98481.88;;;-0.67
19102;BMP280;9683;49.028;12.064;2022-12-18T00:32:36;98476.44;;;-0.64
19102;BMP280;9683;49.028;12.064;2022-12-18T00:35:04;98478.44;;;-0.57
19102;BMP280;9683;49.028;12.064;2022-12-18T00:37:31;98486.50;;;-0.49
19102;BMP280;9683;49.028;12.064;2022-12-18T00:39:57;98477.34;;;-0.43
19102;BMP280;9683;49.028;12.064;2022-12-18T00:42:24;98486.72;;;-0.40
19102;BMP280;9683;49.028;12.064;2022-12-18T00:45:09;98483.16;;;-0.39
19102;BMP280;9683;49.028;12.064;2022-12-18T00:47:37;98496.09;;;-0.38
19102;BMP280;9683;49.028;12.064;2022-12-18T00:50:04;98497.63;;;-0.35
19102;BMP280;9683;49.028;12.064;2022-12-18T00:52:31;98495.13;;;-0.37
19102;BMP280;9683;49.028;12.064;2022-12-18T00:54:58;98502.03;;;-0.36
19102;BMP280;9683;49.028;12.064;2022-12-18T00:57:24;98493.25;;;-0.35
19102;BMP280;9683;49.028;12.064;2022-12-18T00:59:51;98483.75;;;-0.36
19102;BMP280;9683;49.028;12.064;2022-12-18T01:02:19;98482.78;;;-0.35
19102;BMP280;9683;49.028;12.064;2022-12-18T01:04:45;98479.22;;;-0.34
19102;BMP280;9683;49.028;12.064;2022-12-18T01:07:12;98482.06;;;-0.26
19102;BMP280;9683;49.028;12.064;2022-12-18T01:09:38;98480.72;;;-0.20
19102;BMP280;9683;49.028;12.064;2022-12-18T01:12:06;98473.44;;;-0.17
19102;BMP280;9683;49.028;12.064;2022-12-18T01:14:32;98476.88;;;-0.16
19102;BMP280;9683;49.028;12.064;2022-12-18T01:16:59;98482.00;;;-0.15
19102;BMP280;9683;49.028;12.064;2022-12-18T01:19:29;98490.41;;;-0.11
19102;BMP280;9683;49.028;12.064;2022-12-18T01:21:56;98491.38;;;-0.12
19102;BMP280;9683;49.028;12.064;2022-12-18T01:24:23;98500.88;;;-0.11
19102;BMP280;9683;49.028;12.064;2022-12-18T01:26:49;98494.69;;;-0.10
19102;BMP280;9683;49.028;12.064;2022-12-18T01:29:16;98494.59;;;-0.09
19102;BMP280;9683;49.028;12.064;2022-12-18T01:31:43;98494.44;;;-0.07
19102;BMP280;9683;49.028;12.064;2022-12-18T01:34:10;98495.28;;;-0.07
19102;BMP280;9683;49.028;12.064;2022-12-18T01:36:38;98498.63;;;-0.05
19102;BMP280;9683;49.028;12.064;2022-12-18T01:39:07;98488.97;;;-0.04
19102;BMP280;9683;49.028;12.064;2022-12-18T01:41:34;98494.91;;;-0.02
19102;BMP280;9683;49.028;12.064;2022-12-18T01:44:54;98497.41;;;-0.01
19102;BMP280;9683;49.028;12.064;2022-12-18T01:47:30;98494.91;;;-0.02
19102;BMP280;9683;49.028;12.064;2022-12-18T01:50:00;98506.31;;;-0.03
19102;BMP280;9683;49.028;12.064;2022-12-18T01:52:31;98515.94;;;-0.04
19102;BMP280;9683;49.028;12.064;2022-12-18T01:54:59;98513.56;;;-0.07
19102;BMP280;9683;49.028;12.064;2022-12-18T01:57:28;98519.75;;;-0.08
19102;BMP280;9683;49.028;12.064;2022-12-18T01:59:59;98511.06;;;-0.08
19102;BMP280;9683;49.028;12.064;2022-12-18T02:02:27;98514.91;;;-0.12
19102;BMP280;9683;49.028;12.064;2022-12-18T02:04:54;98523.56;;;-0.12
19102;BMP280;9683;49.028;12.064;2022-12-18T02:07:24;98520.13;;;-0.12
19102;BMP280;9683;49.028;12.064;2022-12-18T02:09:59;98512.28;;;-0.12
19102;BMP280;9683;49.028;12.064;2022-12-18T02:12:30;98524.41;;;-0.11
19102;BMP280;9683;49.028;12.064;2022-12-18T02:15:03;98528.69;;;-0.10
19102;BMP280;9683;49.028;12.064;2022-12-18T02:17:37;98533.09;;;-0.11
19102;BMP280;9683;49.028;12.064;2022-12-18T02:20:09;98536.78;;;-0.13
19102;BMP280;9683;49.028;12.064;2022-12-18T02:22:46;98530.16;;;-0.17
19102;BMP280;9683;49.028;12.064;2022-12-18T02:25:32;98527.91;;;-0.22
19102;BMP280;9683;49.028;12.064;2022-12-18T02:28:09;98522.78;;;-0.23
19102;BMP280;9683;49.028;12.064;2022-12-18T02:30:39;98523.16;;;-0.28
19102;BMP280;9683;49.028;12.064;2022-12-18T02:33:08;98530.28;;;-0.30
19102;BMP280;9683;49.028;12.064;2022-12-18T02:35:36;98525.28;;;-0.33
19102;BMP280;9683;49.028;12.064;2022-12-18T02:38:04;98520.31;;;-0.36
19102;BMP280;9683;49.028;12.064;2022-12-18T02:40:31;98526.50;;;-0.37
19102;BMP280;9683;49.028;12.064;2022-12-18T02:43:02;98525.53;;;-0.36
19102;BMP280;9683;49.028;12.064;2022-12-18T02:45:31;98524.72;;;-0.36
19102;BMP280;9683;49.028;12.064;2022-12-18T02:47:57;98525.78;;;-0.39
19102;BMP280;9683;49.028;12.064;2022-12-18T02:50:29;98537.19;;;-0.40
19102;BMP280;9683;49.028;12.064;2022-12-18T02:53:06;98535.78;;;-0.44
19102;BMP280;9683;49.028;12.064;2022-12-18T02:55:45;98534.94;;;-0.44
19102;BMP280;9683;49.028;12.064;2022-12-18T02:58:18;98537.56;;;-0.44
19102;BMP280;9683;49.028;12.064;2022-12-18T03:00:53;98539.59;;;-0.48
19102;BMP280;9683;49.028;12.064;2022-12-18T03:03:25;98537.91;;;-0.49
19102;BMP280;9683;49.028;12.064;2022-12-18T03:05:57;98539.59;;;-0.48
19102;BMP280;9683;49.028;12.064;2022-12-18T03:08:28;98540.66;;;-0.51
19102;BMP280;9683;49.028;12.064;2022-12-18T03:10:58;98534.72;;;-0.53
19102;BMP280;9683;49.028;12.064;2022-12-18T03:13:28;98535.78;;;-0.66
19102;BMP280;9683;49.028;12.064;2022-12-18T03:15:59;98525.59;;;-0.69
19102;BMP280;9683;49.028;12.064;2022-12-18T03:18:29;98526.44;;;-0.69
19102;BMP280;9683;49.028;12.064;2022-12-18T03:20:59;98531.06;;;-0.72
19102;BMP280;9683;49.028;12.064;2022-12-18T03:23:29;98524.06;;;-0.83
19102;BMP280;9683;49.028;12.064;2022-12-18T03:26:00;98528.00;;;-0.88
19102;BMP280;9683;49.028;12.064;2022-12-18T03:28:29;98534.38;;;-0.81
19102;BMP280;9683;49.028;12.064;2022-12-18T03:31:00;98535.47;;;-0.73
19102;BMP280;9683;49.028;12.064;2022-12-18T03:33:31;98534.84;;;-0.65
19102;BMP280;9683;49.028;12.064;2022-12-18T03:36:01;98527.72;;;-0.74
19102;BMP280;9683;49.028;12.064;2022-12-18T03:38:27;98526.56;;;-0.81
19102;BMP280;9683;49.028;12.064;2022-12-18T03:41:00;98526.81;;;-0.84
19102;BMP280;9683;49.028;12.064;2022-12-18T03:43:36;98527.16;;;-0.89
19102;BMP280;9683;49.028;12.064;2022-12-18T03:46:08;98525.25;;;-0.87
19102;BMP280;9683;49.028;12.064;2022-12-18T03:48:41;98528.09;;;-0.79
19102;BMP280;9683;49.028;12.064;2022-12-18T03:51:13;98518.94;;;-0.73
19102;BMP280;9683;49.028;12.064;2022-12-18T03:53:45;98508.97;;;-0.68
19102;BMP280;9683;49.028;12.064;2022-12-18T03:56:15;98517.66;;;-0.68
19102;BMP280;9683;49.028;12.064;2022-12-18T03:58:43;98522.25;;;-0.71
19102;BMP280;9683;49.028;12.064;2022-12-18T04:01:14;98522.97;;;-0.69
19102;BMP280;9683;49.028;12.064;2022-12-18T04:03:42;98531.16;;;-0.63
19102;BMP280;9683;49.028;12.064;2022-12-18T04:06:11;98532.47;;;-0.57
19102;BMP280;9683;49.028;12.064;2022-12-18T04:08:38;98535.56;;;-0.52
19102;BMP280;9683;49.028;12.064;2022-12-18T04:11:05;98532.94;;;-0.52
19102;BMP280;9683;49.028;12.064;2022-12-18T04:13:34;98541.63;;;-0.52
19102;BMP280;9683;49.028;12.064;2022-12-18T04:16:02;98541.25;;;-0.58
19102;BMP280;9683;49.028;12.064;2022-12-18T04:18:30;98550.88;;;-0.70
19102;BMP280;9683;49.028;12.064;2022-12-18T04:20:57;98542.81;;;-0.89
19102;BMP280;9683;49.028;12.064;2022-12-18T04:23:24;98554.66;;;-0.96
19102;BMP280;9683;49.028;12.064;2022-12-18T04:25:50;98555.25;;;-0.93
19102;BMP280;9683;49.028;12.064;2022-12-18T04:28:17;98552.19;;;-0.86
19102;BMP280;9683;49.028;12.064;2022-12-18T04:30:44;98555.88;;;-0.78
19102;BMP280;9683;49.028;12.064;2022-12-18T04:33:11;98558.00;;;-0.72
19102;BMP280;9683;49.028;12.064;2022-12-18T04:35:40;98555.25;;;-0.70
19102;BMP280;9683;49.028;12.064;2022-12-18T04:38:07;98561.91;;;-0.77
19102;BMP280;9683;49.028;12.064;2022-12-18T04:40:34;98562.97;;;-0.80
19102;BMP280;9683;49.028;12.064;2022-12-18T04:43:01;98559.22;;;-0.76
19102;BMP280;9683;49.028;12.064;2022-12-18T04:45:28;98564.66;;;-0.68
19102;BMP280;9683;49.028;12.064;2022-12-18T04:47:56;98563.34;;;-0.62
19102;BMP280;9683;49.028;12.064;2022-12-18T04:50:23;98567.03;;;-0.65
19102;BMP280;9683;49.028;12.064;2022-12-18T04:52:51;98568.06;;;-0.67
19102;BMP280;9683;49.028;12.064;2022-12-18T04:55:18;98569.41;;;-0.73
19102;BMP280;9683;49.028;12.064;2022-12-18T04:57:45;98569.75;;;-0.66
19102;BMP280;9683;49.028;12.064;2022-12-18T05:00:12;98578.19;;;-0.74
19102;BMP280;9683;49.028;12.064;2022-12-18T05:02:39;98572.97;;;-0.74
19102;BMP280;9683;49.028;12.064;2022-12-18T05:05:07;98571.88;;;-0.71
19102;BMP280;9683;49.028;12.064;2022-12-18T05:07:33;98566.53;;;-0.70
19102;BMP280;9683;49.028;12.064;2022-12-18T05:10:02;98581.88;;;-0.65
19102;BMP280;9683;49.028;12.064;2022-12-18T05:12:30;98586.84;;;-0.62
19102;BMP280;9683;49.028;12.064;2022-12-18T05:14:57;98582.59;;;-0.63
19102;BMP280;9683;49.028;12.064;2022-12-18T05:17:24;98571.41;;;-0.65
19102;BMP280;9683;49.028;12.064;2022-12-18T05:19:51;98582.94;;;-0.68
19102;BMP280;9683;49.028;12.064;2022-12-18T05:22:17;98583.88;;;-0.69
19102;BMP280;9683;49.028;12.064;2022-12-18T05:24:44;98588.16;;;-0.68
19102;BMP280;9683;49.028;12.064;2022-12-18T05:27:12;98583.41;;;-0.74
19102;BMP280;9683;49.028;12.064;2022-12-18T05:29:38;98590.53;;;-0.76
19102;BMP280;9683;49.028;12.064;2022-12-18T05:32:05;98591.59;;;-0.78
19102;BMP280;9683;49.028;12.064;2022-12-18T05:34:31;98596.13;;;-0.80
19102;BMP280;9683;49.028;12.064;2022-12-18T05:36:59;98591.59;;;-0.78
19102;BMP280;9683;49.028;12.064;2022-12-18T05:39:25;98584.59;;;-0.78
19102;BMP280;9683;49.028;12.064;2022-12-18T05:41:52;98597.41;;;-0.75
19102;BMP280;9683;49.028;12.064;2022-12-18T05:44:20;98598.00;;;-0.71
19102;BMP280;9683;49.028;12.064;2022-12-18T05:46:46;98601.44;;;-0.71
19102;BMP280;9683;49.028;12.064;2022-12-18T05:49:13;98600.13;;;-0.87
19102;BMP280;9683;49.028;12.064;2022-12-18T05:51:39;98596.16;;;-1.15
19102;BMP280;9683;49.028;12.064;2022-12-18T05:54:06;98601.13;;;-1.23
19102;BMP280;9683;49.028;12.064;2022-12-18T05:56:32;98605.84;;;-1.28
19102;BMP280;9683;49.028;12.064;2022-12-18T05:58:59;98608.91;;;-1.34
19102;BMP280;9683;49.028;12.064;2022-12-18T06:01:27;98619.13;;;-1.31
19102;BMP280;9683;49.028;12.064;2022-12-18T06:03:54;98620.56;;;-1.27
19102;BMP280;9683;49.028;12.064;2022-12-18T06:06:22;98607.78;;;-1.19
19102;BMP280;9683;49.028;12.064;2022-12-18T06:08:50;98614.34;;;-1.14
19102;BMP280;9683;49.028;12.064;2022-12-18T06:11:18;98620.75;;;-1.07
19102;BMP280;9683;49.028;12.064;2022-12-18T06:13:45;98625.38;;;-0.99
19102;BMP280;9683;49.028;12.064;2022-12-18T06:16:12;98620.75;;;-0.96
19102;BMP280;9683;49.028;12.064;2022-12-18T06:18:40;98623.13;;;-0.93
19102;BMP280;9683;49.028;12.064;2022-12-18T06:21:06;98616.13;;;-0.92
19102;BMP280;9683;49.028;12.064;2022-12-18T06:23:33;98627.53;;;-0.93
19102;BMP280;9683;49.028;12.064;2022-12-18T06:26:03;98621.34;;;-1.03
19102;BMP280;9683;49.028;12.064;2022-12-18T06:28:30;98623.59;;;-1.10
19102;BMP280;9683;49.028;12.064;2022-12-18T06:30:56;98627.25;;;-1.12
19102;BMP280;9683;49.028;12.064;2022-12-18T06:33:26;98632.22;;;-1.09
19102;BMP280;9683;49.028;12.064;2022-12-18T06:35:54;98630.00;;;-1.14
19102;BMP280;9683;49.028;12.064;2022-12-18T06:38:21;98630.34;;;-1.18
19102;BMP280;9683;49.028;12.064;2022-12-18T06:40:48;98626.88;;;-1.19
19102;BMP280;9683;49.028;12.064;2022-12-18T06:43:14;98631.97;;;-1.17
19102;BMP280;9683;49.028;12.064;2022-12-18T06:45:41;98636.00;;;-1.13
19102;BMP280;9683;49.028;12.064;2022-12-18T06:48:07;98634.97;;;-1.11
19102;BMP280;9683;49.028;12.064;2022-12-18T06:50:34;98634.84;;;-1.09
19102;BMP280;9683;49.028;12.064;2022-12-18T06:53:02;98639.72;;;-1.05
19102;BMP280;9683;49.028;12.064;2022-12-18T06:55:28;98632.47;;;-1.12
19102;BMP280;9683;49.028;12.064;2022-12-18T06:57:55;98651.22;;;-1.18
19102;BMP280;9683;49.028;12.064;2022-12-18T07:00:21;98659.03;;;-1.18
19102;BMP280;9683;49.028;12.064;2022-12-18T07:02:48;98652.75;;;-1.16
19102;BMP280;9683;49.028;12.064;2022-12-18T07:05:15;98649.91;;;-1.13
19102;BMP280;9683;49.028;12.064;2022-12-18T07:07:41;98661.16;;;-1.12
19102;BMP280;9683;49.028;12.064;2022-12-18T07:10:09;98658.22;;;-1.08
19102;BMP280;9683;49.028;12.064;2022-12-18T07:12:36;98670.00;;;-1.02
19102;BMP280;9683;49.028;12.064;2022-12-18T07:15:03;98669.41;;;-0.95
19102;BMP280;9683;49.028;12.064;2022-12-18T07:17:30;98661.34;;;-0.92
19102;BMP280;9683;49.028;12.064;2022-12-18T07:19:57;98669.19;;;-0.92
19102;BMP280;9683;49.028;12.064;2022-12-18T07:22:25;98671.69;;;-0.90
19102;BMP280;9683;49.028;12.064;2022-12-18T07:24:51;98674.19;;;-0.88
19102;BMP280;9683;49.028;12.064;2022-12-18T07:27:19;98669.44;;;-0.83
19102;BMP280;9683;49.028;12.064;2022-12-18T07:29:46;98666.81;;;-0.83
19102;BMP280;9683;49.028;12.064;2022-12-18T07:32:13;98653.91;;;-0.85
19102;BMP280;9683;49.028;12.064;2022-12-18T07:34:39;98655.53;;;-0.84
19102;BMP280;9683;49.028;12.064;2022-12-18T07:37:06;98642.72;;;-0.87
19102;BMP280;9683;49.028;12.064;2022-12-18T07:39:32;98642.38;;;-0.94
19102;BMP280;9683;49.028;12.064;2022-12-18T07:41:59;98642.56;;;-0.97
19102;BMP280;9683;49.028;12.064;2022-12-18T07:44:45;98648.44;;;-0.93
19102;BMP280;9683;49.028;12.064;2022-12-18T07:47:11;98651.22;;;-1.07
19102;BMP280;9683;49.028;12.064;2022-12-18T07:49:38;98652.41;;;-1.11
19102;BMP280;9683;49.028;12.064;2022-12-18T07:52:04;98655.72;;;-1.09
19102;BMP280;9683;49.028;12.064;2022-12-18T07:54:31;98657.03;;;-1.04
19102;BMP280;9683;49.028;12.064;2022-12-18T07:56:57;98651.47;;;-1.10
19102;BMP280;9683;49.028;12.064;2022-12-18T07:59:24;98666.03;;;-1.19
19102;BMP280;9683;49.028;12.064;2022-12-18T08:01:52;98666.88;;;-1.18
19102;BMP280;9683;49.028;12.064;2022-12-18T08:04:18;98672.69;;;-1.15
19102;BMP280;9683;49.028;12.064;2022-12-18T08:06:45;98675.41;;;-1.16
19102;BMP280;9683;49.028;12.064;2022-12-18T08:09:12;98673.19;;;-1.10
19102;BMP280;9683;49.028;12.064;2022-12-18T08:11:39;98678.50;;;-1.11
19102;BMP280;9683;49.028;12.064;2022-12-18T08:14:05;98678.75;;;-1.14
19102;BMP280;9683;49.028;12.064;2022-12-18T08:16:32;98675.97;;;-1.24
19102;BMP280;9683;49.028;12.064;2022-12-18T08:18:59;98690.09;;;-1.26
19102;BMP280;9683;49.028;12.064;2022-12-18T08:21:28;98679.00;;;-1.30
19102;BMP280;9683;49.028;12.064;2022-12-18T08:23:58;98691.13;;;-1.29
19102;BMP280;9683;49.028;12.064;2022-12-18T08:26:26;98702.16;;;-1.25
19102;BMP280;9683;49.028;12.064;2022-12-18T08:28:53;98703.41;;;-1.18
19102;BMP280;9683;49.028;12.064;2022-12-18T08:31:21;98701.72;;;-1.19
19102;BMP280;9683;49.028;12.064;2022-12-18T08:33:48;98708.72;;;-1.20
19102;BMP280;9683;49.028;12.064;2022-12-18T08:36:17;98709.16;;;-1.26
19102;BMP280;9683;49.028;12.064;2022-12-18T08:38:43;98712.72;;;-1.27
19102;BMP280;9683;49.028;12.064;2022-12-18T08:41:12;98714.22;;;-1.35
19102;BMP280;9683;49.028;12.064;2022-12-18T08:43:40;98711.81;;;-1.39
19102;BMP280;9683;49.028;12.064;2022-12-18T08:46:26;98715.78;;;-1.33
19102;BMP280;9683;49.028;12.064;2022-12-18T08:48:54;98710.22;;;-1.28
19102;BMP280;9683;49.028;12.064;2022-12-18T08:51:22;98713.91;;;-1.31
19102;BMP280;9683;49.028;12.064;2022-12-18T08:53:48;98718.03;;;-1.28
19102;BMP280;9683;49.028;12.064;2022-12-18T08:56:15;98716.44;;;-1.18
19102;BMP280;9683;49.028;12.064;2022-12-18T08:58:42;98715.97;;;-1.12
19102;BMP280;9683;49.028;12.064;2022-12-18T09:01:10;98720.97;;;-1.09
19102;BMP280;9683;49.028;12.064;2022-12-18T09:03:37;98715.09;;;-1.24
19102;BMP280;9683;49.028;12.064;2022-12-18T09:06:05;98721.44;;;-1.39
19102;BMP280;9683;49.028;12.064;2022-12-18T09:08:36;98717.88;;;-1.38
19102;BMP280;9683;49.028;12.064;2022-12-18T09:11:03;98720.38;;;-1.36
19102;BMP280;9683;49.028;12.064;2022-12-18T09:13:29;98720.06;;;-1.32
19102;BMP280;9683;49.028;12.064;2022-12-18T09:15:56;98721.59;;;-1.29
19102;BMP280;9683;49.028;12.064;2022-12-18T09:18:23;98714.50;;;-1.27
19102;BMP280;9683;49.028;12.064;2022-12-18T09:20:50;98713.94;;;-1.20
19102;BMP280;9683;49.028;12.064;2022-12-18T09:23:18;98715.28;;;-1.14
19102;BMP280;9683;49.028;12.064;2022-12-18T09:25:46;98709.81;;;-1.11
19102;BMP280;9683;49.028;12.064;2022-12-18T09:28:17;98719.69;;;-1.04
19102;BMP280;9683;49.028;12.064;2022-12-18T09:30:46;98718.84;;;-1.04
19102;BMP280;9683;49.028;12.064;2022-12-18T09:33:12;98710.44;;;-0.97
19102;BMP280;9683;49.028;12.064;2022-12-18T09:35:40;98707.63;;;-0.94
19102;BMP280;9683;49.028;12.064;2022-12-18T09:38:08;98713.78;;;-0.95
19102;BMP280;9683;49.028;12.064;2022-12-18T09:40:41;98715.31;;;-1.03
19102;BMP280;9683;49.028;12.064;2022-12-18T09:43:14;98704.19;;;-1.18
19102;BMP280;9683;49.028;12.064;2022-12-18T09:45:44;98701.59;;;-1.18
19102;BMP280;9683;49.028;12.064;2022-12-18T09:48:14;98689.28;;;-1.16
19102;BMP280;9683;49.028;12.064;2022-12-18T09:50:42;98698.28;;;-1.20
19102;BMP280;9683;49.028;12.064;2022-12-18T09:53:14;98697.78;;;-1.25
19102;BMP280;9683;49.028;12.064;2022-12-18T09:55:44;98698.25;;;-1.31
19102;BMP280;9683;49.028;12.064;2022-12-18T09:58:16;98691.97;;;-1.28
19102;BMP280;9683;49.028;12.064;2022-12-18T10:00:45;98697.09;;;-1.16
19102;BMP280;9683;49.028;12.064;2022-12-18T10:03:14;98698.56;;;-1.01
19102;BMP280;9683;49.028;12.064;2022-12-18T10:05:48;98695.41;;;-0.93
19102;BMP280;9683;49.028;12.064;2022-12-18T10:08:23;98690.41;;;-0.96
19102;BMP280;9683;49.028;12.064;2022-12-18T10:10:52;98681.81;;;-1.09
19102;BMP280;9683;49.028;12.064;2022-12-18T10:13:24;98693.94;;;-1.08
19102;BMP280;9683;49.028;12.064;2022-12-18T10:16:04;98688.22;;;-1.13
19102;BMP280;9683;49.028;12.064;2022-12-18T10:18:45;98688.34;;;-1.15
19102;BMP280;9683;49.028;12.064;2022-12-18T10:21:19;98685.19;;;-0.96
19102;BMP280;9683;49.028;12.064;2022-12-18T10:23:56;98686.09;;;-0.73
19102;BMP280;9683;49.028;12.064;2022-12-18T10:26:25;98682.75;;;-0.75
19102;BMP280;9683;49.028;12.064;2022-12-18T10:28:53;98684.66;;;-0.77
19102;BMP280;9683;49.028;12.064;2022-12-18T10:31:23;98684.66;;;-0.77
19102;BMP280;9683;49.028;12.064;2022-12-18T10:33:50;98683.97;;;-0.68
19102;BMP280;9683;49.028;12.064;2022-12-18T10:36:17;98679.56;;;-0.68
19102;BMP280;9683;49.028;12.064;2022-12-18T10:38:43;98665.78;;;-0.81
19102;BMP280;9683;49.028;12.064;2022-12-18T10:41:24;98675.88;;;-0.76
19102;BMP280;9683;49.028;12.064;2022-12-18T10:44:12;98670.56;;;-0.64
19102;BMP280;9683;49.028;12.064;2022-12-18T10:46:39;98666.03;;;-0.73
19102;BMP280;9683;49.028;12.064;2022-12-18T10:49:18;98659.25;;;-0.75
19102;BMP280;9683;49.028;12.064;2022-12-18T10:51:45;98656.38;;;-0.95
19102;BMP280;9683;49.028;12.064;2022-12-18T10:54:14;98653.00;;;-1.08
19102;BMP280;9683;49.028;12.064;2022-12-18T10:56:42;98650.81;;;-1.25
19102;BMP280;9683;49.028;12.064;2022-12-18T10:59:12;98650.81;;;-1.25
19102;BMP280;9683;49.028;12.064;2022-12-18T11:01:47;98657.38;;;-1.19
19102;BMP280;9683;49.028;12.064;2022-12-18T11:04:17;98655.47;;;-1.17
19102;BMP280;9683;49.028;12.064;2022-12-18T11:06:53;98655.84;;;-1.11
19102;BMP280;9683;49.028;12.064;2022-12-18T11:09:22;98655.03;;;-1.00
19102;BMP280;9683;49.028;12.064;2022-12-18T11:11:49;98667.50;;;-0.93
19102;BMP280;9683;49.028;12.064;2022-12-18T11:14:22;98670.16;;;-0.81
19102;BMP280;9683;49.028;12.064;2022-12-18T11:16:50;98668.72;;;-0.85
19102;BMP280;9683;49.028;12.064;2022-12-18T11:19:24;98664.81;;;-0.80
19102;BMP280;9683;49.028;12.064;2022-12-18T11:21:52;98676.66;;;-0.87
19102;BMP280;9683;49.028;12.064;2022-12-18T11:24:22;98681.41;;;-0.92
19102;BMP280;9683;49.028;12.064;2022-12-18T11:26:53;98676.06;;;-0.90
19102;BMP280;9683;49.028;12.064;2022-12-18T11:29:29;98677.25;;;-0.83
19102;BMP280;9683;49.028;12.064;2022-12-18T11:32:21;98663.66;;;-0.76
19102;BMP280;9683;49.028;12.064;2022-12-18T11:34:52;98672.34;;;-0.64
19102;BMP280;9683;49.028;12.064;2022-12-18T11:37:22;98666.72;;;-0.71
19102;BMP280;9683;49.028;12.064;2022-12-18T11:39:52;98667.09;;;-0.64
19102;BMP280;9683;49.028;12.064;2022-12-18T11:42:25;98671.84;;;-0.58
19102;BMP280;9683;49.028;12.064;2022-12-18T11:44:59;98672.44;;;-0.55
19102;BMP280;9683;49.028;12.064;2022-12-18T11:47:30;98672.72;;;-0.47
19102;BMP280;9683;49.028;12.064;2022-12-18T11:50:00;98661.53;;;-0.37
19102;BMP280;9683;49.028;12.064;2022-12-18T11:52:31;98655.50;;;-0.27
19102;BMP280;9683;49.028;12.064;2022-12-18T11:55:04;98653.94;;;-0.18
19102;BMP280;9683;49.028;12.064;2022-12-18T11:57:36;98661.53;;;-0.15
19102;BMP280;9683;49.028;12.064;2022-12-18T12:00:13;98656.31;;;-0.15
19102;BMP280;9683;49.028;12.064;2022-12-18T12:05:49;98671.97;;;-0.04
19102;BMP280;9683;49.028;12.064;2022-12-18T12:08:23;98669.47;;;0.06
19102;BMP280;9683;49.028;12.064;2022-12-18T12:11:02;98657.72;;;0.11
19102;BMP280;9683;49.028;12.064;2022-12-18T12:13:40;98657.56;;;0.13
19102;BMP280;9683;49.028;12.064;2022-12-18T12:16:17;98641.88;;;0.13
19102;BMP280;9683;49.028;12.064;2022-12-18T12:18:59;98639.72;;;0.18
19102;BMP280;9683;49.028;12.064;2022-12-18T12:21:34;98635.69;;;0.14
19102;BMP280;9683;49.028;12.064;2022-12-18T12:24:16;98620.41;;;-0.02
19102;BMP280;9683;49.028;12.064;2022-12-18T12:26:54;98614.72;;;-0.18
19102;BMP280;9683;49.028;12.064;2022-12-18T12:29:33;98624.13;;;-0.27
19102;BMP280;9683;49.028;12.064;2022-12-18T12:32:15;98621.75;;;-0.30
19102;BMP280;9683;49.028;12.064;2022-12-18T12:34:49;98612.09;;;-0.29
19102;BMP280;9683;49.028;12.064;2022-12-18T12:37:29;98617.97;;;-0.26
19102;BMP280;9683;49.028;12.064;2022-12-18T12:40:01;98617.22;;;-0.17
19102;BMP280;9683;49.028;12.064;2022-12-18T12:42:32;98622.53;;;-0.07
19102;BMP280;9683;49.028;12.064;2022-12-18T12:45:21;98623.16;;;-0.15
19102;BMP280;9683;49.028;12.064;2022-12-18T12:47:50;98623.78;;;-0.22
19102;BMP280;9683;49.028;12.064;2022-12-18T12:50:20;98620.69;;;-0.27
19102;BMP280;9683;49.028;12.064;2022-12-18T12:52:52;98620.56;;;-0.26
19102;BMP280;9683;49.028;12.064;2022-12-18T12:55:21;98622.69;;;-0.20
19102;BMP280;9683;49.028;12.064;2022-12-18T12:57:55;98618.41;;;-0.10
19102;BMP280;9683;49.028;12.064;2022-12-18T13:00:27;98615.06;;;-0.01
19102;BMP280;9683;49.028;12.064;2022-12-18T13:03:06;98615.50;;;0.05
19102;BMP280;9683;49.028;12.064;2022-12-18T13:05:40;98602.44;;;0.05
19102;BMP280;9683;49.028;12.064;2022-12-18T13:08:09;98608.38;;;0.07
19102;BMP280;9683;49.028;12.064;2022-12-18T13:10:37;98606.09;;;0.13
19102;BMP280;9683;49.028;12.064;2022-12-18T13:13:06;98616.78;;;0.21
19102;BMP280;9683;49.028;12.064;2022-12-18T13:15:36;98617.84;;;0.19
19102;BMP280;9683;49.028;12.064;2022-12-18T13:18:19;98626.44;;;0.21
19102;BMP280;9683;49.028;12.064;2022-12-18T13:20:49;98619.16;;;0.24
19102;BMP280;9683;49.028;12.064;2022-12-18T13:23:27;98612.00;;;0.26
19102;BMP280;9683;49.028;12.064;2022-12-18T13:25:55;98622.47;;;0.26
19102;BMP280;9683;49.028;12.064;2022-12-18T13:28:23;98624.72;;;0.31
19102;BMP280;9683;49.028;12.064;2022-12-18T13:30:53;98620.22;;;0.33
19102;BMP280;9683;49.028;12.064;2022-12-18T13:33:48;98626.28;;;0.33
19102;BMP280;9683;49.028;12.064;2022-12-18T13:36:31;98627.06;;;0.34
19102;BMP280;9683;49.028;12.064;2022-12-18T13:39:31;98616.56;;;0.13
19102;BMP280;9683;49.028;12.064;2022-12-18T13:45:37;98612.94;;;-0.18
19102;BMP280;9683;49.028;12.064;2022-12-18T13:48:04;98612.94;;;-0.18
19102;BMP280;9683;49.028;12.064;2022-12-18T13:50:33;98612.22;;;-0.20
19102;BMP280;9683;49.028;12.064;2022-12-18T13:52:59;98609.13;;;-0.25
19102;BMP280;9683;49.028;12.064;2022-12-18T13:55:26;98596.91;;;-0.24
19102;BMP280;9683;49.028;12.064;2022-12-18T13:58:03;98608.66;;;-0.19
19102;BMP280;9683;49.028;12.064;2022-12-18T14:00:30;98594.66;;;-0.18
19102;BMP280;9683;49.028;12.064;2022-12-18T14:02:59;98592.25;;;-0.10
19102;BMP280;9683;49.028;12.064;2022-12-18T14:05:28;98598.66;;;-0.03
19102;BMP280;9683;49.028;12.064;2022-12-18T14:08:00;98607.91;;;0.02
19102;BMP280;9683;49.028;12.064;2022-12-18T14:10:35;98602.56;;;0.03
19102;BMP280;9683;49.028;12.064;2022-12-18T14:13:05;98600.66;;;0.05
19102;BMP280;9683;49.028;12.064;2022-12-18T14:15:34;98602.44;;;0.05
19102;BMP280;9683;49.028;12.064;2022-12-18T14:18:03;98607.66;;;0.05
19102;BMP280;9683;49.028;12.064;2022-12-18T14:20:36;98615.41;;;0.06
19102;BMP280;9683;49.028;12.064;2022-12-18T14:23:25;98599.59;;;0.08
19102;BMP280;9683;49.028;12.064;2022-12-18T14:25:52;98595.19;;;0.08
19102;BMP280;9683;49.028;12.064;2022-12-18T14:28:18;98595.31;;;0.07
19102;BMP280;9683;49.028;12.064;2022-12-18T14:30:47;98600.06;;;0.02